Time;durP1;ratioP1;P1;durP2;ratioP2;P2;SDS_P1;SDS_P2;PMS_P1;PMS_P2;Temp;Humidity;BMP_temperature;BMP_pressure;BME280_temperature;BME280_humidity;BME280_pressure;Samples;Min_cycle;Max_cycle;Signal;HPM_P1;HPM_P2
2022/07/19 00:01:29;;;;;;;1.40;1.40;;;24.30;63.40;;;;;;5108668;27;43894;-70
2022/07/19 00:03:57;;;;;;;1.47;1.47;;;24.30;63.70;;;;;;5108925;27;43913;-69
2022/07/19 00:06:27;;;;;;;1.30;1.30;;;24.40;63.80;;;;;;5108087;27;44060;-69
2022/07/19 00:08:54;;;;;;;1.40;1.40;;;24.50;63.60;;;;;;5108057;27;43357;-69
2022/07/19 00:11:22;;;;;;;1.40;1.40;;;24.60;63.20;;;;;;5089653;27;43932;-69
2022/07/19 00:13:50;;;;;;;1.70;1.70;;;24.80;62.80;;;;;;5108665;27;44015;-68
2022/07/19 00:16:18;;;;;;;1.40;1.40;;;25.00;62.40;;;;;;5108213;27;43959;-69
2022/07/19 00:18:47;;;;;;;1.70;1.70;;;25.10;61.90;;;;;;5108178;27;43333;-69
2022/07/19 00:21:15;;;;;;;1.50;1.50;;;25.20;61.40;;;;;;5108158;27;43480;-69
2022/07/19 00:23:44;;;;;;;1.23;1.23;;;25.30;61.00;;;;;;5108642;27;44036;-70
2022/07/19 00:26:12;;;;;;;1.53;1.53;;;25.40;60.80;;;;;;5108230;27;43737;-69
2022/07/19 00:28:40;;;;;;;1.23;1.23;;;25.50;60.40;;;;;;5108068;27;44000;-69
2022/07/19 00:31:08;;;;;;;1.25;1.25;;;25.60;60.10;;;;;;5108138;27;43363;-69
2022/07/19 00:33:36;;;;;;;1.37;1.37;;;25.50;60.30;;;;;;5105248;27;43569;-70
2022/07/19 00:36:04;;;;;;;1.50;1.50;;;25.40;60.50;;;;;;5088038;27;43944;-70
2022/07/19 00:38:32;;;;;;;1.40;1.33;;;25.20;60.70;;;;;;5104318;27;43443;-70
2022/07/19 00:41:03;;;;;;;1.40;1.40;;;25.00;61.00;;;;;;5106484;27;44034;-70
2022/07/19 00:43:31;;;;;;;1.30;1.30;;;24.90;61.60;;;;;;5107969;27;43544;-69
2022/07/19 00:45:59;;;;;;;1.37;1.37;;;24.80;61.70;;;;;;5106869;27;43693;-69
2022/07/19 00:48:27;;;;;;;1.30;1.30;;;24.70;61.90;;;;;;5088970;27;43999;-70
2022/07/19 00:50:55;;;;;;;1.43;1.43;;;24.60;62.10;;;;;;5107751;27;43976;-70
2022/07/19 00:53:23;;;;;;;1.40;1.40;;;24.50;62.30;;;;;;5089286;27;44099;-70
2022/07/19 00:55:51;;;;;;;1.40;1.40;;;24.50;62.50;;;;;;5107189;27;43910;-70
2022/07/19 00:58:20;;;;;;;1.40;1.40;;;24.40;62.70;;;;;;5107028;27;43999;-69
2022/07/19 01:00:48;;;;;;;1.40;1.40;;;24.40;62.90;;;;;;5107865;27;44071;-70
2022/07/19 01:03:16;;;;;;;1.20;1.20;;;24.40;62.80;;;;;;5107776;27;43892;-70
2022/07/19 01:05:46;;;;;;;1.47;1.47;;;24.30;62.90;;;;;;5107425;27;45134;-69
2022/07/19 01:08:14;;;;;;;1.33;1.33;;;24.30;63.20;;;;;;5107357;27;43897;-70
2022/07/19 01:10:44;;;;;;;1.10;1.10;;;24.30;63.80;;;;;;5107589;27;43916;-69
2022/07/19 01:13:13;;;;;;;1.40;1.40;;;24.40;64.00;;;;;;5107690;27;43465;-70
2022/07/19 01:15:43;;;;;;;1.27;1.27;;;24.50;63.70;;;;;;5107377;27;43889;-70
2022/07/19 01:18:11;;;;;;;1.40;1.40;;;24.60;63.40;;;;;;5096427;27;44040;-69
2022/07/19 01:20:39;;;;;;;1.47;1.47;;;24.80;63.00;;;;;;5087926;27;43960;-69
2022/07/19 01:23:08;;;;;;;1.43;1.43;;;24.90;62.40;;;;;;5087843;27;43918;-70
2022/07/19 01:25:36;;;;;;;1.40;1.40;;;25.10;61.90;;;;;;5087662;27;43901;-70
2022/07/19 01:28:06;;;;;;;1.40;1.40;;;25.20;61.70;;;;;;5087354;27;43912;-70
2022/07/19 01:30:34;;;;;;;1.20;1.20;;;25.30;61.00;;;;;;5087561;27;43949;-69
2022/07/19 01:33:02;;;;;;;1.27;1.27;;;25.50;60.50;;;;;;5087735;27;43443;-69
2022/07/19 01:35:30;;;;;;;1.13;1.13;;;25.60;60.00;;;;;;5087040;27;44931;-69
2022/07/19 01:37:58;;;;;;;1.42;1.42;;;25.70;59.80;;;;;;5087214;27;43320;-70
2022/07/19 01:40:27;;;;;;;1.40;1.40;;;25.80;59.50;;;;;;5086704;27;43889;-69
2022/07/19 01:42:55;;;;;;;1.60;1.60;;;25.70;59.70;;;;;;5087658;27;43990;-69
2022/07/19 01:45:23;;;;;;;1.40;1.40;;;25.50;59.90;;;;;;5087239;27;43583;-70
2022/07/19 01:47:51;;;;;;;1.40;1.40;;;25.30;60.30;;;;;;5087219;27;44018;-69
2022/07/19 01:50:19;;;;;;;1.30;1.30;;;25.20;61.40;;;;;;5087406;27;44010;-70
2022/07/19 01:52:49;;;;;;;1.30;1.30;;;25.00;61.10;;;;;;5089063;27;43362;-70
2022/07/19 01:55:18;;;;;;;1.50;1.50;;;24.80;61.50;;;;;;5090765;27;43999;-69
2022/07/19 01:57:48;;;;;;;1.40;1.40;;;24.70;61.90;;;;;;5090734;27;43896;-69
2022/07/19 02:00:16;;;;;;;1.60;1.57;;;24.60;62.00;;;;;;5090850;27;43945;-70
2022/07/19 02:02:44;;;;;;;1.57;1.57;;;24.50;62.10;;;;;;5091160;27;44074;-70
2022/07/19 02:05:12;;;;;;;1.47;1.47;;;24.50;62.40;;;;;;5090753;27;43971;-69
2022/07/19 02:07:40;;;;;;;1.60;1.50;;;24.40;62.80;;;;;;5090739;27;43850;-69
2022/07/19 02:10:09;;;;;;;1.40;1.40;;;24.40;63.40;;;;;;5082511;27;43948;-69
2022/07/19 02:12:37;;;;;;;1.40;1.40;;;24.40;62.90;;;;;;5090646;27;43888;-69
2022/07/19 02:15:07;;;;;;;1.50;1.50;;;24.40;62.90;;;;;;5090383;27;43776;-68
2022/07/19 02:17:35;;;;;;;1.70;1.70;;;24.30;62.90;;;;;;5090480;27;43964;-70
2022/07/19 02:20:04;;;;;;;1.23;1.23;;;24.30;62.90;;;;;;5090545;27;43420;-69
2022/07/19 02:22:32;;;;;;;1.40;1.40;;;24.30;63.10;;;;;;5090746;27;43937;-69
2022/07/19 02:25:00;;;;;;;1.37;1.37;;;24.30;63.30;;;;;;5071659;28;46188;-69
2022/07/19 02:27:28;;;;;;;1.60;1.60;;;24.30;63.90;;;;;;5090185;27;43377;-69
2022/07/19 02:29:56;;;;;;;1.50;1.50;;;24.40;64.00;;;;;;5090385;27;43872;-70
2022/07/19 02:32:26;;;;;;;1.40;1.40;;;24.50;63.80;;;;;;5090690;27;44013;-69
2022/07/19 02:34:56;;;;;;;1.40;1.40;;;24.70;63.30;;;;;;5083289;27;43932;-69
2022/07/19 02:37:24;;;;;;;1.40;1.40;;;24.80;62.60;;;;;;5071283;27;46133;-69
2022/07/19 02:39:52;;;;;;;1.40;1.40;;;25.00;62.00;;;;;;5064627;27;43962;-69
2022/07/19 02:42:20;;;;;;;1.30;1.30;;;25.10;61.70;;;;;;5084079;27;43456;-70
2022/07/19 02:44:48;;;;;;;1.30;1.30;;;25.30;61.20;;;;;;5083299;27;43611;-69
2022/07/19 02:47:16;;;;;;;1.60;1.60;;;25.40;60.60;;;;;;5083468;27;43969;-70
2022/07/19 02:49:45;;;;;;;1.30;1.30;;;25.60;60.30;;;;;;5083746;27;43886;-69
2022/07/19 02:52:13;;;;;;;1.40;1.40;;;25.70;59.90;;;;;;5084123;27;44083;-70
2022/07/19 02:54:41;;;;;;;1.43;1.43;;;25.70;59.90;;;;;;5090081;27;43933;-70
2022/07/19 02:57:09;;;;;;;1.30;1.30;;;25.50;60.10;;;;;;5089888;27;44372;-69
2022/07/19 02:59:37;;;;;;;1.40;1.40;;;25.40;60.40;;;;;;5089731;27;43943;-70
2022/07/19 03:02:05;;;;;;;1.40;1.40;;;25.20;60.70;;;;;;5090137;27;43956;-69
2022/07/19 03:04:33;;;;;;;1.50;1.40;;;25.00;61.00;;;;;;5102437;27;43923;-69
2022/07/19 03:07:02;;;;;;;1.50;1.50;;;24.90;61.60;;;;;;5109188;27;44130;-69
2022/07/19 03:09:30;;;;;;;1.60;1.50;;;24.70;61.80;;;;;;5109364;27;43937;-69
2022/07/19 03:11:58;;;;;;;1.47;1.47;;;24.60;62.00;;;;;;5109706;27;44250;-69
2022/07/19 03:14:27;;;;;;;1.20;1.20;;;24.50;62.30;;;;;;5109211;27;43965;-69
2022/07/19 03:16:55;;;;;;;1.20;1.20;;;24.50;62.40;;;;;;5109128;27;43980;-69
2022/07/19 03:19:25;;;;;;;1.40;1.40;;;24.40;62.50;;;;;;5108921;27;43959;-70
2022/07/19 03:21:53;;;;;;;1.37;1.37;;;24.40;62.70;;;;;;5109446;27;43392;-69
2022/07/19 03:24:22;;;;;;;1.50;1.50;;;24.40;63.70;;;;;;5109061;27;43784;-68
2022/07/19 03:26:50;;;;;;;1.33;1.33;;;24.30;62.90;;;;;;5101475;27;43853;-69
2022/07/19 03:29:18;;;;;;;1.50;1.50;;;24.30;63.10;;;;;;5096947;27;44009;-70
2022/07/19 03:31:48;;;;;;;1.90;1.50;;;24.30;62.90;;;;;;5109433;27;43967;-69
2022/07/19 03:34:16;;;;;;;1.50;1.50;;;24.30;63.70;;;;;;5108817;27;44068;-70
2022/07/19 03:36:44;;;;;;;1.33;1.33;;;24.30;64.10;;;;;;5100972;27;43933;-69
2022/07/19 03:39:12;;;;;;;1.40;1.40;;;24.50;63.90;;;;;;5089360;27;43948;-69
2022/07/19 03:41:42;;;;;;;1.57;1.47;;;24.60;63.50;;;;;;5070991;27;44014;-69
2022/07/19 03:44:10;;;;;;;1.50;1.50;;;24.70;63.70;;;;;;5090071;27;44093;-70
2022/07/19 03:46:38;;;;;;;1.33;1.33;;;24.90;62.50;;;;;;5097249;27;44023;-69
2022/07/19 03:49:06;;;;;;;1.53;1.50;;;25.00;61.90;;;;;;5110226;27;43816;-69
2022/07/19 03:51:34;;;;;;;1.40;1.40;;;25.10;61.60;;;;;;5101262;27;43927;-70
2022/07/19 03:54:02;;;;;;;1.50;1.50;;;25.30;61.20;;;;;;5088891;27;44016;-69
2022/07/19 03:56:30;;;;;;;1.30;1.30;;;25.40;60.60;;;;;;5097002;27;44091;-70
2022/07/19 03:58:59;;;;;;;1.40;1.40;;;25.50;60.10;;;;;;5094152;27;43417;-70
2022/07/19 04:01:27;;;;;;;1.48;1.48;;;25.60;59.80;;;;;;5089425;27;43394;-70
2022/07/19 04:03:55;;;;;;;1.35;1.35;;;25.70;59.60;;;;;;5088780;27;44003;-69
2022/07/19 04:06:23;;;;;;;1.33;1.33;;;25.80;59.50;;;;;;5088661;27;43406;-69
2022/07/19 04:08:51;;;;;;;1.30;1.30;;;25.70;59.80;;;;;;5088921;27;43914;-70
2022/07/19 04:11:19;;;;;;;1.57;1.57;;;25.50;60.20;;;;;;5104277;27;43929;-69
2022/07/19 04:13:47;;;;;;;1.50;1.50;;;25.30;60.70;;;;;;5089687;27;45919;-69
2022/07/19 04:16:17;;;;;;;1.50;1.50;;;25.10;61.30;;;;;;5100566;27;43557;-70
2022/07/19 04:18:45;;;;;;;1.60;1.60;;;25.00;61.80;;;;;;5108398;27;43428;-69
2022/07/19 04:21:13;;;;;;;1.50;1.50;;;24.80;62.00;;;;;;5108766;27;43858;-69
2022/07/19 04:23:41;;;;;;;1.30;1.30;;;24.70;62.20;;;;;;5108378;27;43999;-69
2022/07/19 04:26:10;;;;;;;1.43;1.43;;;24.60;62.50;;;;;;5108354;27;44101;-69
2022/07/19 04:28:38;;;;;;;1.50;1.50;;;24.50;62.60;;;;;;5099889;27;44029;-69
2022/07/19 04:31:06;;;;;;;1.47;1.47;;;24.50;62.70;;;;;;5088770;27;43969;-70
2022/07/19 04:33:36;;;;;;;1.60;1.53;;;24.40;62.80;;;;;;5072195;27;45632;-69
2022/07/19 04:36:04;;;;;;;1.70;1.70;;;24.40;62.90;;;;;;5108019;27;43868;-69
2022/07/19 04:38:32;;;;;;;1.30;1.30;;;24.40;62.90;;;;;;5108252;27;43978;-70
2022/07/19 04:41:00;;;;;;;1.60;1.60;;;24.30;62.90;;;;;;5108099;27;44340;-69
2022/07/19 04:43:28;;;;;;;1.70;1.70;;;24.30;63.00;;;;;;5092077;27;44040;-69
2022/07/19 04:45:59;;;;;;;1.60;1.60;;;24.30;63.10;;;;;;5088286;27;44041;-70
2022/07/19 04:48:27;;;;;;;1.40;1.40;;;24.30;63.20;;;;;;5088345;27;44015;-69
2022/07/19 04:50:57;;;;;;;1.50;1.50;;;24.30;63.30;;;;;;5098015;27;44006;-69
2022/07/19 04:53:25;;;;;;;1.67;1.67;;;24.30;63.40;;;;;;5107700;27;43738;-69
2022/07/19 04:55:52;;;;;;;1.50;1.50;;;24.20;63.50;;;;;;5107567;27;44246;-70
2022/07/19 04:58:20;;;;;;;1.50;1.50;;;24.30;64.00;;;;;;5107826;27;44126;-70
2022/07/19 05:00:48;;;;;;;1.40;1.40;;;24.40;64.00;;;;;;5108082;27;43335;-70
2022/07/19 05:03:17;;;;;;;1.60;1.60;;;24.50;63.50;;;;;;5107450;27;43970;-68
2022/07/19 05:05:45;;;;;;;1.63;1.63;;;24.70;63.00;;;;;;5107621;27;43981;-68
2022/07/19 05:08:15;;;;;;;1.50;1.50;;;24.80;62.40;;;;;;5107916;27;43951;-69
2022/07/19 05:10:43;;;;;;;1.50;1.50;;;25.00;62.00;;;;;;5091396;27;43402;-69
2022/07/19 05:13:11;;;;;;;1.70;1.60;;;25.10;61.60;;;;;;5088063;27;44401;-69
2022/07/19 05:15:39;;;;;;;1.53;1.53;;;25.30;60.90;;;;;;5097918;27;43883;-70
2022/07/19 05:18:07;;;;;;;1.50;1.50;;;25.50;60.70;;;;;;5107554;27;43391;-70
2022/07/19 05:20:36;;;;;;;1.40;1.40;;;25.60;60.20;;;;;;5089292;27;44127;-70
2022/07/19 05:23:04;;;;;;;1.50;1.50;;;25.70;60.00;;;;;;5106809;27;43900;-69
2022/07/19 05:25:33;;;;;;;1.47;1.47;;;25.60;59.50;;;;;;5107510;27;43370;-69
2022/07/19 05:28:01;;;;;;;1.67;1.67;;;25.50;59.80;;;;;;5107257;27;43987;-70
2022/07/19 05:30:29;;;;;;;1.67;1.67;;;25.30;59.70;;;;;;5101321;27;43365;-70
2022/07/19 05:32:57;;;;;;;1.60;1.60;;;25.10;59.60;;;;;;5103598;27;44977;-70
2022/07/19 05:35:25;;;;;;;1.73;1.60;;;25.00;60.60;;;;;;5069022;28;43333;-70
2022/07/19 05:37:53;;;;;;;1.80;1.80;;;24.80;60.40;;;;;;5069049;28;43949;-70
2022/07/19 05:40:21;;;;;;;1.60;1.60;;;24.70;61.30;;;;;;5087863;27;43799;-69
2022/07/19 05:42:50;;;;;;;1.70;1.70;;;24.60;61.20;;;;;;5104506;27;44035;-69
2022/07/19 05:45:18;;;;;;;1.60;1.60;;;24.60;61.80;;;;;;5107053;27;43999;-69
2022/07/19 05:47:46;;;;;;;1.50;1.50;;;24.50;62.10;;;;;;5089937;27;43765;-69
2022/07/19 05:50:14;;;;;;;1.43;1.43;;;24.40;62.20;;;;;;5094751;27;44052;-71
2022/07/19 05:52:42;;;;;;;1.57;1.57;;;24.40;62.50;;;;;;5087092;27;44059;-69
2022/07/19 05:55:10;;;;;;;1.50;1.50;;;24.40;62.40;;;;;;5087518;27;43891;-70
2022/07/19 05:57:38;;;;;;;1.40;1.40;;;24.40;62.50;;;;;;5087402;27;43921;-70
2022/07/19 06:00:11;;;;;;;1.50;1.50;;;24.30;62.80;;;;;;5087539;27;43890;-69
2022/07/19 06:02:39;;;;;;;1.80;1.80;;;24.30;63.60;;;;;;5083853;27;43977;-69
2022/07/19 06:05:09;;;;;;;1.60;1.60;;;24.30;63.30;;;;;;5087081;27;43986;-70
2022/07/19 06:07:37;;;;;;;1.50;1.50;;;24.40;63.40;;;;;;5087234;27;43361;-69
2022/07/19 06:10:06;;;;;;;1.67;1.67;;;24.50;63.00;;;;;;5087649;27;43398;-69
2022/07/19 06:12:34;;;;;;;1.70;1.70;;;24.60;62.90;;;;;;5105317;27;43858;-69
2022/07/19 06:15:02;;;;;;;1.47;1.47;;;24.80;62.50;;;;;;5101385;27;43990;-71
2022/07/19 06:17:32;;;;;;;1.50;1.50;;;24.90;62.10;;;;;;5098711;27;44057;-69
2022/07/19 06:20:01;;;;;;;2.10;1.30;;;25.00;61.80;;;;;;5107068;27;43840;-70
2022/07/19 06:22:30;;;;;;;1.53;1.53;;;25.20;61.70;;;;;;5106512;27;44835;-69
2022/07/19 06:24:58;;;;;;;1.60;1.60;;;25.30;61.10;;;;;;5106626;27;43938;-69
2022/07/19 06:27:26;;;;;;;1.40;1.40;;;25.40;60.70;;;;;;5094456;27;43366;-69
2022/07/19 06:29:54;;;;;;;1.60;1.60;;;25.50;60.20;;;;;;5087113;27;44114;-69
2022/07/19 06:32:22;;;;;;;1.52;1.52;;;25.60;59.90;;;;;;5105794;27;44920;-69
2022/07/19 06:34:51;;;;;;;1.67;1.58;;;25.70;59.70;;;;;;5086962;27;43870;-70
2022/07/19 06:37:19;;;;;;;1.70;1.70;;;25.60;59.60;;;;;;5086907;27;44027;-69
2022/07/19 06:39:47;;;;;;;1.60;1.60;;;25.40;59.50;;;;;;5089842;27;43963;-70
2022/07/19 06:42:15;;;;;;;1.60;1.60;;;25.20;58.90;;;;;;5090285;27;43961;-70
2022/07/19 06:44:45;;;;;;;1.50;1.50;;;25.10;59.80;;;;;;5089790;27;43987;-68
2022/07/19 06:47:12;;;;;;;1.70;1.70;;;24.90;60.60;;;;;;5103466;27;44054;-69
2022/07/19 06:49:40;;;;;;;1.50;1.50;;;24.80;60.90;;;;;;5104401;27;43747;-69
2022/07/19 06:52:10;;;;;;;1.50;1.50;;;24.70;61.30;;;;;;5089803;27;43972;-69
2022/07/19 06:54:41;;;;;;;1.50;1.50;;;24.60;61.50;;;;;;5090048;27;44071;-70
2022/07/19 06:57:09;;;;;;;1.60;1.60;;;24.50;62.00;;;;;;5083601;27;43435;-69
2022/07/19 06:59:37;;;;;;;1.70;1.60;;;24.50;62.30;;;;;;5097179;27;44154;-69
2022/07/19 07:02:05;;;;;;;1.63;1.63;;;24.40;62.30;;;;;;5051006;28;47695;-69
2022/07/19 07:04:34;;;;;;;1.57;1.57;;;24.40;62.50;;;;;;5089764;27;43888;-69
2022/07/19 07:07:14;;;;;;;1.70;1.70;;;24.40;62.50;;;;;;5085122;27;43346;-69
2022/07/19 07:09:42;;;;;;;1.60;1.60;;;24.30;62.70;;;;;;5090460;27;43962;-69
2022/07/19 07:12:10;;;;;;;1.60;1.60;;;24.30;62.60;;;;;;5090166;27;43864;-69
2022/07/19 07:14:38;;;;;;;1.50;1.50;;;24.30;62.70;;;;;;5097970;27;44260;-69
2022/07/19 07:17:06;;;;;;;2.30;1.57;;;24.30;63.00;;;;;;5109349;27;43923;-68
2022/07/19 07:19:34;;;;;;;1.80;1.80;;;24.30;63.10;;;;;;5091247;27;44116;-70
2022/07/19 07:22:02;;;;;;;1.57;1.57;;;24.30;63.40;;;;;;5109134;27;43948;-69
2022/07/19 07:24:31;;;;;;;1.30;1.30;;;24.30;64.10;;;;;;5109166;27;43388;-70
2022/07/19 07:27:01;;;;;;;1.60;1.60;;;24.30;63.80;;;;;;5109319;27;44019;-70
2022/07/19 07:29:29;;;;;;;1.60;1.60;;;24.50;63.60;;;;;;5109387;27;44312;-70
2022/07/19 07:31:57;;;;;;;1.60;1.60;;;24.60;63.20;;;;;;5108959;27;43732;-70
2022/07/19 07:34:25;;;;;;;1.40;1.40;;;24.70;62.80;;;;;;5109054;27;44015;-69
2022/07/19 07:36:53;;;;;;;1.60;1.60;;;24.90;62.70;;;;;;5109056;27;44268;-69
2022/07/19 07:39:21;;;;;;;1.63;1.63;;;25.00;62.30;;;;;;5109507;27;43927;-70
2022/07/19 07:41:50;;;;;;;1.80;1.80;;;25.10;61.70;;;;;;5108188;27;44136;-69
2022/07/19 07:44:34;;;;;;;1.60;1.60;;;25.30;61.30;;;;;;5108787;27;44061;-70
2022/07/19 07:47:02;;;;;;;1.60;1.60;;;25.40;60.80;;;;;;5109012;27;44033;-69
2022/07/19 07:49:31;;;;;;;1.70;1.63;;;25.50;60.50;;;;;;5091231;27;43920;-70
2022/07/19 07:51:59;;;;;;;1.40;1.40;;;25.40;60.60;;;;;;5081894;27;45856;-69
2022/07/19 07:54:26;;;;;;;1.50;1.50;;;25.30;60.80;;;;;;5097219;27;43990;-70
2022/07/19 07:56:56;;;;;;;1.53;1.53;;;25.10;60.90;;;;;;5089059;27;43332;-69
2022/07/19 07:59:24;;;;;;;1.30;1.30;;;25.00;61.40;;;;;;5089427;27;43993;-69
2022/07/19 08:01:52;;;;;;;1.50;1.50;;;24.80;61.90;;;;;;5079356;27;44068;-70
2022/07/19 08:04:26;;;;;;;1.50;1.50;;;24.70;62.10;;;;;;5083197;27;43989;-70
2022/07/19 08:06:54;;;;;;;1.40;1.40;;;24.60;62.50;;;;;;5089071;27;43917;-70
2022/07/19 08:09:22;;;;;;;1.40;1.40;;;24.50;62.70;;;;;;5089402;27;43343;-68
2022/07/19 08:11:50;;;;;;;1.50;1.50;;;24.50;63.10;;;;;;5101049;27;45110;-69
2022/07/19 08:14:20;;;;;;;1.50;1.50;;;24.40;63.20;;;;;;5096079;27;43936;-70
2022/07/19 08:16:47;;;;;;;1.40;1.40;;;24.40;63.40;;;;;;5070442;28;43380;-70
2022/07/19 08:19:16;;;;;;;1.50;1.50;;;24.40;63.50;;;;;;5089039;27;43928;-69
2022/07/19 08:21:44;;;;;;;1.50;1.50;;;24.30;63.60;;;;;;5095533;27;44008;-69
2022/07/19 08:24:12;;;;;;;1.20;1.20;;;24.30;63.70;;;;;;5088699;27;43336;-69
2022/07/19 08:26:40;;;;;;;1.50;1.50;;;24.30;64.70;;;;;;5108480;27;44026;-69
2022/07/19 08:29:08;;;;;;;1.40;1.40;;;24.30;64.80;;;;;;5108770;27;44097;-69
2022/07/19 08:31:38;;;;;;;1.30;1.30;;;24.40;64.70;;;;;;5095039;27;43853;-69
2022/07/19 08:34:07;;;;;;;1.40;1.40;;;24.40;64.40;;;;;;5056334;28;45013;-69
2022/07/19 08:36:35;;;;;;;1.40;1.40;;;24.60;64.20;;;;;;5088293;27;43948;-69
2022/07/19 08:39:03;;;;;;;1.27;1.27;;;24.70;63.70;;;;;;5108496;27;43943;-69
2022/07/19 08:41:32;;;;;;;1.27;1.27;;;24.80;63.40;;;;;;5080912;27;44015;-70
2022/07/19 08:44:01;;;;;;;1.30;1.30;;;24.90;63.00;;;;;;5089256;27;43950;-70
2022/07/19 08:46:29;;;;;;;1.40;1.40;;;25.10;62.70;;;;;;5082056;27;43798;-70
2022/07/19 08:48:59;;;;;;;1.40;1.40;;;25.20;62.80;;;;;;5082190;27;43968;-69
2022/07/19 08:51:28;;;;;;;1.33;1.33;;;25.30;61.70;;;;;;5087665;27;43927;-70
2022/07/19 08:53:56;;;;;;;1.37;1.37;;;25.50;61.30;;;;;;5069513;27;45172;-69
2022/07/19 08:59:22;;;;;;;1.40;1.30;;;25.60;60.50;;;;;;5042992;28;43825;-69
2022/07/19 09:01:50;;;;;;;1.27;1.27;;;25.50;61.50;;;;;;5074853;27;46295;-69
2022/07/19 09:04:20;;;;;;;1.30;1.30;;;25.40;61.30;;;;;;5096230;27;44050;-70
2022/07/19 09:06:49;;;;;;;1.30;1.30;;;25.20;61.70;;;;;;5087927;27;44495;-69
2022/07/19 09:09:18;;;;;;;1.40;1.40;;;25.00;62.00;;;;;;5088262;27;43951;-71
2022/07/19 09:11:50;;;;;;;1.10;1.10;;;24.90;62.40;;;;;;5094401;27;44786;-69
2022/07/19 09:14:20;;;;;;;1.40;1.40;;;24.70;62.60;;;;;;5087799;27;43987;-69
2022/07/19 09:16:55;;;;;;;1.40;1.40;;;24.60;62.90;;;;;;5087581;27;43304;-69
2022/07/19 09:19:25;;;;;;;1.20;1.20;;;24.50;63.20;;;;;;5088135;27;43805;-69
2022/07/19 09:21:58;;;;;;;1.30;1.30;;;24.50;63.40;;;;;;5082625;27;45671;-69
2022/07/19 09:24:26;;;;;;;1.40;1.40;;;24.40;63.60;;;;;;5107336;27;43987;-69
2022/07/19 09:27:04;;;;;;;1.30;1.30;;;24.40;64.20;;;;;;5107529;27;44037;-69
2022/07/19 09:29:32;;;;;;;1.40;1.40;;;24.30;63.90;;;;;;5107432;27;43940;-69
2022/07/19 09:32:08;;;;;;;1.20;1.20;;;24.30;64.10;;;;;;5107358;27;44006;-69
2022/07/19 09:34:39;;;;;;;1.40;1.40;;;24.30;64.10;;;;;;5107181;27;43996;-69
2022/07/19 09:37:14;;;;;;;1.30;1.30;;;24.20;64.10;;;;;;5107348;27;43847;-70
2022/07/19 09:39:45;;;;;;;1.50;1.50;;;24.20;64.20;;;;;;5107623;27;43878;-70
2022/07/19 09:42:14;;;;;;;1.30;1.30;;;24.20;64.20;;;;;;5107157;27;44034;-69
2022/07/19 09:44:42;;;;;;;1.33;1.33;;;24.20;64.30;;;;;;5107206;27;44050;-69
2022/07/19 09:47:10;;;;;;;1.37;1.37;;;24.20;64.60;;;;;;5107177;27;43745;-70
2022/07/19 09:49:41;;;;;;;1.37;1.37;;;24.20;65.20;;;;;;5107510;27;44013;-69
2022/07/19 09:52:10;;;;;;;1.10;1.10;;;24.30;65.30;;;;;;5106485;27;43973;-70
2022/07/19 09:54:38;;;;;;;1.30;1.30;;;24.40;65.10;;;;;;5106988;27;44082;-70
2022/07/19 09:57:06;;;;;;;1.40;1.40;;;24.50;64.60;;;;;;5106913;27;43912;-69
2022/07/19 09:59:34;;;;;;;1.27;1.27;;;24.60;64.10;;;;;;5107271;27;43988;-69
2022/07/19 10:02:02;;;;;;;1.20;1.20;;;24.70;63.70;;;;;;5106873;27;43620;-69
2022/07/19 10:04:30;;;;;;;1.30;1.30;;;24.90;63.30;;;;;;5106854;27;44012;-70
2022/07/19 10:06:59;;;;;;;1.20;1.20;;;25.00;62.90;;;;;;5106763;27;43838;-70
2022/07/19 10:09:27;;;;;;;1.20;1.20;;;25.10;62.40;;;;;;5094157;27;43932;-69
2022/07/19 10:11:57;;;;;;;1.17;1.17;;;25.30;62.00;;;;;;5086672;27;44660;-69
2022/07/19 10:14:25;;;;;;;1.30;1.30;;;25.40;61.60;;;;;;5082911;27;43311;-70
2022/07/19 10:17:19;;;;;;;1.27;1.27;;;25.40;61.80;;;;;;5083925;27;43383;-69
2022/07/19 10:19:48;;;;;;;1.20;1.20;;;25.30;61.80;;;;;;5070211;28;44276;-69
2022/07/19 10:22:18;;;;;;;1.30;1.30;;;25.10;62.00;;;;;;5090654;27;44007;-69
2022/07/19 10:24:48;;;;;;;1.23;1.23;;;24.90;62.40;;;;;;5090547;27;44074;-70
2022/07/19 10:27:17;;;;;;;1.27;1.27;;;24.80;62.90;;;;;;5090545;27;43862;-69
2022/07/19 10:29:45;;;;;;;1.10;1.10;;;24.70;63.20;;;;;;5102031;27;43992;-70
2022/07/19 10:32:14;;;;;;;1.33;1.33;;;24.60;63.50;;;;;;5110382;27;43936;-70
2022/07/19 10:34:42;;;;;;;1.10;1.10;;;24.50;63.70;;;;;;5110797;27;43377;-69
2022/07/19 10:37:10;;;;;;;1.20;1.20;;;24.40;63.90;;;;;;5106151;27;44033;-69
2022/07/19 10:39:40;;;;;;;1.27;1.27;;;24.40;64.10;;;;;;5089927;27;43893;-70
2022/07/19 10:42:21;;;;;;;1.30;1.30;;;24.30;64.20;;;;;;5109700;27;44066;-69
2022/07/19 10:45:16;;;;;;;1.20;1.20;;;24.30;64.40;;;;;;5083490;27;43957;-69
2022/07/19 10:48:15;;;;;;;1.40;1.40;;;24.30;64.50;;;;;;5042926;27;43427;-69
2022/07/19 10:51:01;;;;;;;1.27;1.27;;;24.20;64.60;;;;;;5098441;27;44038;-69
2022/07/19 10:53:57;;;;;;;1.20;1.20;;;24.20;65.40;;;;;;5109554;27;44081;-69
2022/07/19 10:56:28;;;;;;;1.40;1.40;;;24.20;65.40;;;;;;5109734;27;43464;-69
2022/07/19 10:58:57;;;;;;;1.27;1.27;;;24.30;65.30;;;;;;5109613;27;44000;-69
2022/07/19 11:01:26;;;;;;;1.20;1.20;;;24.40;65.10;;;;;;5110246;27;43928;-69
2022/07/19 11:03:54;;;;;;;1.00;1.00;;;24.50;64.70;;;;;;5109541;27;44225;-69
2022/07/19 11:06:24;;;;;;;1.10;1.10;;;24.70;64.30;;;;;;5102869;27;43892;-69
2022/07/19 11:08:54;;;;;;;1.30;1.30;;;24.80;63.90;;;;;;5109479;27;43799;-69
2022/07/19 11:11:23;;;;;;;1.10;1.10;;;24.90;63.40;;;;;;5110088;27;43851;-69
2022/07/19 11:13:53;;;;;;;1.30;1.30;;;25.00;63.00;;;;;;5109516;27;44000;-69
2022/07/19 11:16:21;;;;;;;1.30;1.30;;;25.10;62.60;;;;;;5090543;27;44861;-70
2022/07/19 11:18:49;;;;;;;1.20;1.20;;;25.30;62.20;;;;;;5109373;27;43390;-69
2022/07/19 11:21:18;;;;;;;1.17;1.17;;;25.40;62.50;;;;;;5100726;27;44087;-69
2022/07/19 11:23:46;;;;;;;1.40;1.40;;;25.50;61.50;;;;;;5091493;27;43620;-69
2022/07/19 11:26:15;;;;;;;1.20;1.20;;;25.50;61.10;;;;;;5109539;27;43358;-69
2022/07/19 11:28:44;;;;;;;1.20;1.20;;;25.50;61.50;;;;;;5109512;27;44096;-69
2022/07/19 11:31:14;;;;;;;1.10;1.10;;;25.30;61.80;;;;;;5109857;27;44013;-69
2022/07/19 11:33:43;;;;;;;1.17;1.17;;;25.10;62.10;;;;;;5109288;27;43968;-70
2022/07/19 11:36:11;;;;;;;1.07;1.07;;;25.00;62.60;;;;;;5080887;27;45094;-70
2022/07/19 11:38:40;;;;;;;1.20;1.20;;;24.80;63.00;;;;;;5089450;27;43913;-69
2022/07/19 11:41:13;;;;;;;1.20;1.20;;;24.70;63.30;;;;;;5089166;27;44028;-69
2022/07/19 11:43:41;;;;;;;1.20;1.20;;;24.60;63.60;;;;;;5089435;27;43985;-70
2022/07/19 11:46:09;;;;;;;1.10;1.10;;;24.50;63.90;;;;;;5081418;27;43937;-69
2022/07/19 11:48:39;;;;;;;1.10;1.10;;;24.40;64.00;;;;;;5089536;27;43407;-70
2022/07/19 11:51:08;;;;;;;1.20;1.20;;;24.40;64.30;;;;;;5093414;27;44028;-69
2022/07/19 11:53:37;;;;;;;1.23;1.23;;;24.30;64.40;;;;;;5108439;27;43973;-70
2022/07/19 11:56:05;;;;;;;1.10;1.10;;;24.30;64.50;;;;;;5108880;27;43853;-70
2022/07/19 11:58:34;;;;;;;1.00;1.00;;;24.30;64.60;;;;;;5108791;27;44050;-69
2022/07/19 12:01:03;;;;;;;1.10;1.10;;;24.30;64.70;;;;;;5104386;27;43849;-69
2022/07/19 12:03:31;;;;;;;1.10;1.10;;;24.20;64.60;;;;;;5088964;27;44282;-69
2022/07/19 12:06:02;;;;;;;1.00;1.00;;;24.20;64.70;;;;;;5089077;27;44065;-70
2022/07/19 12:08:38;;;;;;;1.00;1.00;;;24.20;64.80;;;;;;5089140;27;43988;-70
2022/07/19 12:11:23;;;;;;;1.20;1.20;;;24.20;64.70;;;;;;5109134;27;43888;-69
2022/07/19 12:13:51;;;;;;;1.17;1.17;;;24.20;65.00;;;;;;5108717;27;43765;-70
2022/07/19 12:16:19;;;;;;;1.13;1.13;;;24.20;65.70;;;;;;5108198;27;43497;-69
2022/07/19 12:18:52;;;;;;;1.27;1.27;;;24.20;65.60;;;;;;5108662;27;44055;-69
2022/07/19 12:21:23;;;;;;;1.00;1.00;;;24.30;65.50;;;;;;5108800;27;43846;-70
2022/07/19 12:24:10;;;;;;;1.20;1.20;;;24.40;65.10;;;;;;5108245;27;44031;-69
2022/07/19 12:26:39;;;;;;;1.20;1.20;;;24.60;64.60;;;;;;5108127;27;43949;-69
2022/07/19 12:29:23;;;;;;;1.10;1.10;;;24.70;64.10;;;;;;5108329;27;43806;-70
2022/07/19 12:31:52;;;;;;;1.20;1.20;;;24.80;63.60;;;;;;5108665;27;43433;-69
2022/07/19 12:34:20;;;;;;;1.00;1.00;;;25.00;63.30;;;;;;5108152;27;43941;-70
2022/07/19 12:36:50;;;;;;;1.20;1.20;;;25.10;62.90;;;;;;5107149;27;43942;-69
2022/07/19 12:39:23;;;;;;;1.07;1.07;;;25.20;62.50;;;;;;5106658;27;43872;-69
2022/07/19 12:42:02;;;;;;;1.23;1.23;;;25.40;62.10;;;;;;5104088;27;43923;-70
2022/07/19 12:44:30;;;;;;;1.10;1.10;;;25.40;61.90;;;;;;5108171;27;44841;-69
2022/07/19 12:46:58;;;;;;;1.33;1.33;;;25.30;61.80;;;;;;5104251;27;44186;-70
2022/07/19 12:49:47;;;;;;;1.20;1.20;;;25.20;62.60;;;;;;5088396;27;44070;-69
2022/07/19 12:52:17;;;;;;;1.20;1.20;;;25.00;62.60;;;;;;5082309;27;43383;-69
2022/07/19 12:54:44;;;;;;;1.07;1.07;;;24.90;63.00;;;;;;5081774;27;44052;-70
2022/07/19 12:57:12;;;;;;;1.30;1.20;;;24.80;63.20;;;;;;5088380;27;44026;-69
2022/07/19 12:59:40;;;;;;;1.30;1.30;;;24.70;63.30;;;;;;5088655;27;43983;-69
2022/07/19 13:02:09;;;;;;;1.20;1.20;;;24.60;63.40;;;;;;5099864;27;44019;-69